sensor_id;sensor_type;location;lat;lon;timestamp;temperature;humidity
67820;DHT22;54618;52.018;5.576;2023-02-01T00:01:55;17.30;43.40
67820;DHT22;54618;52.018;5.576;2023-02-01T00:04:21;17.30;42.80
67820;DHT22;54618;52.018;5.576;2023-02-01T00:06:46;17.30;42.80
67820;DHT22;54618;52.018;5.576;2023-02-01T00:09:12;17.20;42.80
67820;DHT22;54618;52.018;5.576;2023-02-01T00:11:38;17.20;42.80
67820;DHT22;54618;52.018;5.576;2023-02-01T00:14:03;17.20;43.00
67820;DHT22;54618;52.018;5.576;2023-02-01T00:16:30;17.20;43.00
67820;DHT22;54618;52.018;5.576;2023-02-01T00:19:03;17.20;43.00
67820;DHT22;54618;52.018;5.576;2023-02-01T00:21:29;17.20;43.10
67820;DHT22;54618;52.018;5.576;2023-02-01T00:23:55;17.20;43.00
67820;DHT22;54618;52.018;5.576;2023-02-01T00:26:33;17.20;43.00
67820;DHT22;54618;52.018;5.576;2023-02-01T00:28:59;17.10;43.30
67820;DHT22;54618;52.018;5.576;2023-02-01T00:31:25;17.10;43.10
67820;DHT22;54618;52.018;5.576;2023-02-01T00:33:50;17.10;43.10
67820;DHT22;54618;52.018;5.576;2023-02-01T00:36:16;17.10;43.70
67820;DHT22;54618;52.018;5.576;2023-02-01T00:38:42;17.10;43.20
67820;DHT22;54618;52.018;5.576;2023-02-01T00:41:16;17.10;43.30
67820;DHT22;54618;52.018;5.576;2023-02-01T00:43:42;17.10;43.40
67820;DHT22;54618;52.018;5.576;2023-02-01T00:46:09;17.20;43.40
67820;DHT22;54618;52.018;5.576;2023-02-01T00:48:35;17.10;43.40
67820;DHT22;54618;52.018;5.576;2023-02-01T00:51:02;17.10;43.40
67820;DHT22;54618;52.018;5.576;2023-02-01T00:53:29;17.10;43.50
67820;DHT22;54618;52.018;5.576;2023-02-01T00:55:54;17.10;43.50
67820;DHT22;54618;52.018;5.576;2023-02-01T00:58:20;17.10;43.60
67820;DHT22;54618;52.018;5.576;2023-02-01T01:00:45;17.10;43.70
67820;DHT22;54618;52.018;5.576;2023-02-01T01:03:12;17.10;43.70
67820;DHT22;54618;52.018;5.576;2023-02-01T01:05:47;17.10;43.80
67820;DHT22;54618;52.018;5.576;2023-02-01T01:08:16;17.00;43.80
67820;DHT22;54618;52.018;5.576;2023-02-01T01:10:42;17.00;43.80
67820;DHT22;54618;52.018;5.576;2023-02-01T01:13:08;17.00;43.80
67820;DHT22;54618;52.018;5.576;2023-02-01T01:15:38;17.00;43.90
67820;DHT22;54618;52.018;5.576;2023-02-01T01:18:05;17.00;44.60
67820;DHT22;54618;52.018;5.576;2023-02-01T01:20:31;16.90;43.90
67820;DHT22;54618;52.018;5.576;2023-02-01T01:22:56;17.00;43.90
67820;DHT22;54618;52.018;5.576;2023-02-01T01:25:22;16.90;44.00
67820;DHT22;54618;52.018;5.576;2023-02-01T01:27:47;16.90;44.00
67820;DHT22;54618;52.018;5.576;2023-02-01T01:30:13;16.90;44.00
67820;DHT22;54618;52.018;5.576;2023-02-01T01:32:38;16.90;44.00
67820;DHT22;54618;52.018;5.576;2023-02-01T01:35:05;16.90;44.00
67820;DHT22;54618;52.018;5.576;2023-02-01T01:37:31;16.90;44.10
67820;DHT22;54618;52.018;5.576;2023-02-01T01:39:57;16.80;44.00
67820;DHT22;54618;52.018;5.576;2023-02-01T01:42:22;16.80;44.10
67820;DHT22;54618;52.018;5.576;2023-02-01T01:48:00;16.80;44.50
67820;DHT22;54618;52.018;5.576;2023-02-01T01:50:22;16.80;44.10
67820;DHT22;54618;52.018;5.576;2023-02-01T01:52:50;16.80;44.20
67820;DHT22;54618;52.018;5.576;2023-02-01T01:55:18;16.80;44.20
67820;DHT22;54618;52.018;5.576;2023-02-01T01:57:52;16.70;44.10
67820;DHT22;54618;52.018;5.576;2023-02-01T02:00:20;16.70;44.30
67820;DHT22;54618;52.018;5.576;2023-02-01T02:02:48;16.70;44.20
67820;DHT22;54618;52.018;5.576;2023-02-01T02:05:16;16.70;44.20
67820;DHT22;54618;52.018;5.576;2023-02-01T02:07:46;16.70;44.20
67820;DHT22;54618;52.018;5.576;2023-02-01T02:10:14;16.70;44.30
67820;DHT22;54618;52.018;5.576;2023-02-01T02:12:42;16.70;44.30
67820;DHT22;54618;52.018;5.576;2023-02-01T02:15:09;16.70;44.30
67820;DHT22;54618;52.018;5.576;2023-02-01T02:17:59;16.60;44.30
67820;DHT22;54618;52.018;5.576;2023-02-01T02:26:27;16.60;44.50
67820;DHT22;54618;52.018;5.576;2023-02-01T02:34:34;16.60;44.70
67820;DHT22;54618;52.018;5.576;2023-02-01T02:37:25;16.50;44.40
67820;DHT22;54618;52.018;5.576;2023-02-01T02:42:46;16.50;44.80
67820;DHT22;54618;52.018;5.576;2023-02-01T02:45:47;16.50;44.70
67820;DHT22;54618;52.018;5.576;2023-02-01T02:51:37;16.50;44.90
67820;DHT22;54618;52.018;5.576;2023-02-01T02:54:29;16.40;45.30
67820;DHT22;54618;52.018;5.576;2023-02-01T02:57:14;16.40;44.60
67820;DHT22;54618;52.018;5.576;2023-02-01T03:00:03;16.40;44.60
67820;DHT22;54618;52.018;5.576;2023-02-01T03:02:48;16.40;44.60
67820;DHT22;54618;52.018;5.576;2023-02-01T03:05:39;16.40;44.70
67820;DHT22;54618;52.018;5.576;2023-02-01T03:08:15;16.40;44.60
67820;DHT22;54618;52.018;5.576;2023-02-01T03:11:05;16.70;44.90
67820;DHT22;54618;52.018;5.576;2023-02-01T03:13:50;17.30;46.20
67820;DHT22;54618;52.018;5.576;2023-02-01T03:16:34;17.80;44.80
67820;DHT22;54618;52.018;5.576;2023-02-01T03:21:41;18.30;43.10
67820;DHT22;54618;52.018;5.576;2023-02-01T03:24:14;18.30;42.90
67820;DHT22;54618;52.018;5.576;2023-02-01T03:26:51;18.30;42.90
67820;DHT22;54618;52.018;5.576;2023-02-01T03:29:22;18.30;42.80
67820;DHT22;54618;52.018;5.576;2023-02-01T03:31:49;18.30;42.80
67820;DHT22;54618;52.018;5.576;2023-02-01T03:34:16;18.30;42.90
67820;DHT22;54618;52.018;5.576;2023-02-01T03:36:54;18.30;42.70
67820;DHT22;54618;52.018;5.576;2023-02-01T03:39:34;18.30;43.10
67820;DHT22;54618;52.018;5.576;2023-02-01T03:42:05;18.30;43.00
67820;DHT22;54618;52.018;5.576;2023-02-01T03:44:49;18.30;42.80
67820;DHT22;54618;52.018;5.576;2023-02-01T03:47:28;18.30;43.20
67820;DHT22;54618;52.018;5.576;2023-02-01T03:55:18;18.30;42.90
67820;DHT22;54618;52.018;5.576;2023-02-01T03:58:15;18.30;42.60
67820;DHT22;54618;52.018;5.576;2023-02-01T04:00:46;18.30;43.30
67820;DHT22;54618;52.018;5.576;2023-02-01T04:03:14;18.30;42.80
67820;DHT22;54618;52.018;5.576;2023-02-01T04:05:40;18.40;42.80
67820;DHT22;54618;52.018;5.576;2023-02-01T04:08:05;18.40;42.70
67820;DHT22;54618;52.018;5.576;2023-02-01T04:10:31;18.40;42.80
67820;DHT22;54618;52.018;5.576;2023-02-01T04:12:56;18.40;42.80
67820;DHT22;54618;52.018;5.576;2023-02-01T04:15:22;18.40;42.80
67820;DHT22;54618;52.018;5.576;2023-02-01T04:17:48;18.40;42.80
67820;DHT22;54618;52.018;5.576;2023-02-01T04:20:13;18.40;42.80
67820;DHT22;54618;52.018;5.576;2023-02-01T04:22:39;18.40;42.80
67820;DHT22;54618;52.018;5.576;2023-02-01T04:25:05;18.40;42.90
67820;DHT22;54618;52.018;5.576;2023-02-01T04:27:31;18.40;42.80
67820;DHT22;54618;52.018;5.576;2023-02-01T04:29:56;18.40;42.70
67820;DHT22;54618;52.018;5.576;2023-02-01T04:32:22;18.40;42.80
67820;DHT22;54618;52.018;5.576;2023-02-01T04:34:48;18.40;42.80
67820;DHT22;54618;52.018;5.576;2023-02-01T04:37:13;18.40;42.90
67820;DHT22;54618;52.018;5.576;2023-02-01T04:39:38;18.40;42.80
67820;DHT22;54618;52.018;5.576;2023-02-01T04:42:04;18.40;42.80
67820;DHT22;54618;52.018;5.576;2023-02-01T04:44:30;18.40;42.80
67820;DHT22;54618;52.018;5.576;2023-02-01T04:46:55;18.40;42.70
67820;DHT22;54618;52.018;5.576;2023-02-01T04:49:21;18.40;42.80
67820;DHT22;54618;52.018;5.576;2023-02-01T04:51:47;18.40;42.80
67820;DHT22;54618;52.018;5.576;2023-02-01T04:54:13;18.40;42.70
67820;DHT22;54618;52.018;5.576;2023-02-01T04:56:39;18.40;42.80
67820;DHT22;54618;52.018;5.576;2023-02-01T04:59:05;18.40;42.80
67820;DHT22;54618;52.018;5.576;2023-02-01T05:01:31;18.50;42.80
67820;DHT22;54618;52.018;5.576;2023-02-01T05:03:57;18.50;42.80
67820;DHT22;54618;52.018;5.576;2023-02-01T05:06:23;18.50;42.80
67820;DHT22;54618;52.018;5.576;2023-02-01T05:08:48;18.50;42.60
67820;DHT22;54618;52.018;5.576;2023-02-01T05:11:14;18.40;42.70
67820;DHT22;54618;52.018;5.576;2023-02-01T05:13:59;18.50;42.80
67820;DHT22;54618;52.018;5.576;2023-02-01T05:16:25;18.50;42.70
67820;DHT22;54618;52.018;5.576;2023-02-01T05:18:52;18.40;42.70
67820;DHT22;54618;52.018;5.576;2023-02-01T05:21:17;18.50;42.60
67820;DHT22;54618;52.018;5.576;2023-02-01T05:23:43;18.50;42.80
67820;DHT22;54618;52.018;5.576;2023-02-01T05:26:27;18.50;42.70
67820;DHT22;54618;52.018;5.576;2023-02-01T05:28:52;18.50;42.80
67820;DHT22;54618;52.018;5.576;2023-02-01T05:31:18;18.50;42.80
67820;DHT22;54618;52.018;5.576;2023-02-01T05:33:43;18.40;42.80
67820;DHT22;54618;52.018;5.576;2023-02-01T05:36:09;18.50;42.80
67820;DHT22;54618;52.018;5.576;2023-02-01T05:38:34;18.50;42.90
67820;DHT22;54618;52.018;5.576;2023-02-01T05:41:00;18.50;42.80
67820;DHT22;54618;52.018;5.576;2023-02-01T05:43:25;18.50;42.80
67820;DHT22;54618;52.018;5.576;2023-02-01T05:45:52;18.50;42.80
67820;DHT22;54618;52.018;5.576;2023-02-01T05:48:17;18.50;42.80
67820;DHT22;54618;52.018;5.576;2023-02-01T05:50:43;18.50;42.80
67820;DHT22;54618;52.018;5.576;2023-02-01T05:53:09;18.50;42.80
67820;DHT22;54618;52.018;5.576;2023-02-01T05:55:36;18.50;42.80
67820;DHT22;54618;52.018;5.576;2023-02-01T05:58:01;18.50;42.70
67820;DHT22;54618;52.018;5.576;2023-02-01T06:00:27;18.50;42.80
67820;DHT22;54618;52.018;5.576;2023-02-01T06:02:52;18.50;42.80
67820;DHT22;54618;52.018;5.576;2023-02-01T06:05:18;18.50;42.80
67820;DHT22;54618;52.018;5.576;2023-02-01T06:07:43;18.50;42.90
67820;DHT22;54618;52.018;5.576;2023-02-01T06:10:09;18.50;42.80
67820;DHT22;54618;52.018;5.576;2023-02-01T06:12:35;18.50;42.80
67820;DHT22;54618;52.018;5.576;2023-02-01T06:15:01;18.50;42.80
67820;DHT22;54618;52.018;5.576;2023-02-01T06:17:26;18.50;42.80
67820;DHT22;54618;52.018;5.576;2023-02-01T06:19:52;18.50;42.60
67820;DHT22;54618;52.018;5.576;2023-02-01T06:22:17;18.40;42.50
67820;DHT22;54618;52.018;5.576;2023-02-01T06:24:43;18.40;42.50
67820;DHT22;54618;52.018;5.576;2023-02-01T06:27:08;18.90;42.30
67820;DHT22;54618;52.018;5.576;2023-02-01T06:29:35;19.50;41.70
67820;DHT22;54618;52.018;5.576;2023-02-01T06:32:00;20.10;41.10
67820;DHT22;54618;52.018;5.576;2023-02-01T06:34:26;20.50;41.00
67820;DHT22;54618;52.018;5.576;2023-02-01T06:36:51;20.80;40.90
67820;DHT22;54618;52.018;5.576;2023-02-01T06:39:17;20.90;40.70
67820;DHT22;54618;52.018;5.576;2023-02-01T06:41:46;21.00;40.50
67820;DHT22;54618;52.018;5.576;2023-02-01T06:44:12;21.10;40.40
67820;DHT22;54618;52.018;5.576;2023-02-01T06:46:37;21.20;40.30
67820;DHT22;54618;52.018;5.576;2023-02-01T06:49:03;21.30;40.30
67820;DHT22;54618;52.018;5.576;2023-02-01T06:51:29;21.40;40.20
67820;DHT22;54618;52.018;5.576;2023-02-01T06:53:55;21.50;40.10
67820;DHT22;54618;52.018;5.576;2023-02-01T06:56:21;21.50;40.10
67820;DHT22;54618;52.018;5.576;2023-02-01T06:58:46;21.60;40.10
67820;DHT22;54618;52.018;5.576;2023-02-01T07:01:12;21.60;40.00
67820;DHT22;54618;52.018;5.576;2023-02-01T07:03:38;21.70;40.10
67820;DHT22;54618;52.018;5.576;2023-02-01T07:06:04;21.70;40.10
67820;DHT22;54618;52.018;5.576;2023-02-01T07:08:31;21.70;40.00
67820;DHT22;54618;52.018;5.576;2023-02-01T07:11:04;21.80;40.10
67820;DHT22;54618;52.018;5.576;2023-02-01T07:13:30;21.70;40.10
67820;DHT22;54618;52.018;5.576;2023-02-01T07:16:00;21.70;40.10
67820;DHT22;54618;52.018;5.576;2023-02-01T07:18:27;21.80;40.20
67820;DHT22;54618;52.018;5.576;2023-02-01T07:20:54;21.80;40.20
67820;DHT22;54618;52.018;5.576;2023-02-01T07:23:19;21.80;40.20
67820;DHT22;54618;52.018;5.576;2023-02-01T07:25:46;21.80;40.20
67820;DHT22;54618;52.018;5.576;2023-02-01T07:28:11;21.80;40.20
67820;DHT22;54618;52.018;5.576;2023-02-01T07:30:37;21.80;40.20
67820;DHT22;54618;52.018;5.576;2023-02-01T07:33:03;21.80;40.20
67820;DHT22;54618;52.018;5.576;2023-02-01T07:35:29;21.80;40.20
67820;DHT22;54618;52.018;5.576;2023-02-01T07:37:54;21.80;40.30
67820;DHT22;54618;52.018;5.576;2023-02-01T07:40:20;21.80;40.40
67820;DHT22;54618;52.018;5.576;2023-02-01T07:42:50;21.80;40.30
67820;DHT22;54618;52.018;5.576;2023-02-01T07:45:16;21.80;40.30
67820;DHT22;54618;52.018;5.576;2023-02-01T07:47:42;21.80;40.30
67820;DHT22;54618;52.018;5.576;2023-02-01T07:50:08;21.90;40.40
67820;DHT22;54618;52.018;5.576;2023-02-01T07:52:33;21.90;40.30
67820;DHT22;54618;52.018;5.576;2023-02-01T07:54:59;21.90;40.30
67820;DHT22;54618;52.018;5.576;2023-02-01T07:57:24;21.90;40.40
67820;DHT22;54618;52.018;5.576;2023-02-01T07:59:50;21.90;40.30
67820;DHT22;54618;52.018;5.576;2023-02-01T08:02:34;21.90;40.30
67820;DHT22;54618;52.018;5.576;2023-02-01T08:04:59;22.00;40.30
67820;DHT22;54618;52.018;5.576;2023-02-01T08:07:25;22.00;40.30
67820;DHT22;54618;52.018;5.576;2023-02-01T08:09:50;22.00;40.30
67820;DHT22;54618;52.018;5.576;2023-02-01T08:12:16;22.00;40.30
67820;DHT22;54618;52.018;5.576;2023-02-01T08:14:41;22.00;40.30
67820;DHT22;54618;52.018;5.576;2023-02-01T08:17:07;22.00;40.30
67820;DHT22;54618;52.018;5.576;2023-02-01T08:19:33;22.00;40.30
67820;DHT22;54618;52.018;5.576;2023-02-01T08:21:58;22.00;40.30
67820;DHT22;54618;52.018;5.576;2023-02-01T08:24:24;22.00;40.30
67820;DHT22;54618;52.018;5.576;2023-02-01T08:26:50;22.00;40.30
67820;DHT22;54618;52.018;5.576;2023-02-01T08:29:16;22.10;40.40
67820;DHT22;54618;52.018;5.576;2023-02-01T08:31:42;22.10;40.40
67820;DHT22;54618;52.018;5.576;2023-02-01T08:34:08;22.10;40.60
67820;DHT22;54618;52.018;5.576;2023-02-01T08:36:34;22.10;40.60
67820;DHT22;54618;52.018;5.576;2023-02-01T08:39:00;22.10;40.80
67820;DHT22;54618;52.018;5.576;2023-02-01T08:41:28;22.00;40.90
67820;DHT22;54618;52.018;5.576;2023-02-01T08:43:55;21.90;41.00
67820;DHT22;54618;52.018;5.576;2023-02-01T08:46:21;21.90;41.10
67820;DHT22;54618;52.018;5.576;2023-02-01T08:48:47;21.90;41.20
67820;DHT22;54618;52.018;5.576;2023-02-01T08:51:14;21.90;41.20
67820;DHT22;54618;52.018;5.576;2023-02-01T08:53:40;21.90;41.30
67820;DHT22;54618;52.018;5.576;2023-02-01T08:56:07;21.90;41.30
67820;DHT22;54618;52.018;5.576;2023-02-01T08:58:33;21.90;41.30
67820;DHT22;54618;52.018;5.576;2023-02-01T09:01:10;21.90;41.30
67820;DHT22;54618;52.018;5.576;2023-02-01T09:03:37;22.00;41.60
67820;DHT22;54618;52.018;5.576;2023-02-01T09:06:05;22.00;41.30
67820;DHT22;54618;52.018;5.576;2023-02-01T09:08:31;22.00;41.30
67820;DHT22;54618;52.018;5.576;2023-02-01T09:11:05;22.00;41.30
67820;DHT22;54618;52.018;5.576;2023-02-01T09:13:31;22.00;41.60
67820;DHT22;54618;52.018;5.576;2023-02-01T09:15:57;22.00;41.40
67820;DHT22;54618;52.018;5.576;2023-02-01T09:18:25;22.00;41.50
67820;DHT22;54618;52.018;5.576;2023-02-01T09:20:50;22.00;41.50
67820;DHT22;54618;52.018;5.576;2023-02-01T09:23:16;22.00;41.60
67820;DHT22;54618;52.018;5.576;2023-02-01T09:25:42;22.00;41.70
67820;DHT22;54618;52.018;5.576;2023-02-01T09:28:07;22.00;41.60
67820;DHT22;54618;52.018;5.576;2023-02-01T09:30:35;22.00;41.40
67820;DHT22;54618;52.018;5.576;2023-02-01T09:33:01;22.30;41.30
67820;DHT22;54618;52.018;5.576;2023-02-01T09:35:26;22.60;41.00
67820;DHT22;54618;52.018;5.576;2023-02-01T09:37:52;22.80;40.80
67820;DHT22;54618;52.018;5.576;2023-02-01T09:40:18;23.00;40.60
67820;DHT22;54618;52.018;5.576;2023-02-01T09:45:49;23.30;40.50
67820;DHT22;54618;52.018;5.576;2023-02-01T09:48:23;23.40;40.40
67820;DHT22;54618;52.018;5.576;2023-02-01T09:50:57;23.40;40.30
67820;DHT22;54618;52.018;5.576;2023-02-01T09:53:25;23.40;40.20
67820;DHT22;54618;52.018;5.576;2023-02-01T09:55:57;23.40;40.10
67820;DHT22;54618;52.018;5.576;2023-02-01T09:58:32;23.50;40.20
67820;DHT22;54618;52.018;5.576;2023-02-01T10:01:02;23.50;40.70
67820;DHT22;54618;52.018;5.576;2023-02-01T10:03:32;23.50;40.10
67820;DHT22;54618;52.018;5.576;2023-02-01T10:11:39;23.50;40.00
67820;DHT22;54618;52.018;5.576;2023-02-01T10:14:20;23.50;40.00
67820;DHT22;54618;52.018;5.576;2023-02-01T10:20:19;23.50;40.10
67820;DHT22;54618;52.018;5.576;2023-02-01T10:27:57;23.40;40.30
67820;DHT22;54618;52.018;5.576;2023-02-01T10:30:31;23.40;40.40
67820;DHT22;54618;52.018;5.576;2023-02-01T10:33:23;23.40;40.30
67820;DHT22;54618;52.018;5.576;2023-02-01T10:35:55;23.50;41.00
67820;DHT22;54618;52.018;5.576;2023-02-01T10:38:28;23.50;40.30
67820;DHT22;54618;52.018;5.576;2023-02-01T10:41:00;23.50;40.30
67820;DHT22;54618;52.018;5.576;2023-02-01T10:43:26;23.50;40.30
67820;DHT22;54618;52.018;5.576;2023-02-01T10:45:52;23.50;40.30
67820;DHT22;54618;52.018;5.576;2023-02-01T10:48:18;23.40;40.30
67820;DHT22;54618;52.018;5.576;2023-02-01T10:50:55;23.40;40.40
67820;DHT22;54618;52.018;5.576;2023-02-01T10:53:23;23.30;40.30
67820;DHT22;54618;52.018;5.576;2023-02-01T10:55:54;23.30;40.40
67820;DHT22;54618;52.018;5.576;2023-02-01T10:58:31;23.30;40.30
67820;DHT22;54618;52.018;5.576;2023-02-01T11:00:59;23.30;40.30
67820;DHT22;54618;52.018;5.576;2023-02-01T11:05:56;23.40;40.20
67820;DHT22;54618;52.018;5.576;2023-02-01T11:08:22;23.40;40.10
67820;DHT22;54618;52.018;5.576;2023-02-01T11:11:00;23.40;40.10
67820;DHT22;54618;52.018;5.576;2023-02-01T11:13:32;23.40;40.00
67820;DHT22;54618;52.018;5.576;2023-02-01T11:16:04;23.40;39.90
67820;DHT22;54618;52.018;5.576;2023-02-01T11:18:33;23.40;39.90
67820;DHT22;54618;52.018;5.576;2023-02-01T11:21:01;23.40;39.80
67820;DHT22;54618;52.018;5.576;2023-02-01T11:23:28;23.40;39.90
67820;DHT22;54618;52.018;5.576;2023-02-01T11:26:00;23.50;39.90
67820;DHT22;54618;52.018;5.576;2023-02-01T11:28:38;23.50;39.80
67820;DHT22;54618;52.018;5.576;2023-02-01T11:31:09;23.50;39.80
67820;DHT22;54618;52.018;5.576;2023-02-01T11:33:38;23.50;39.80
67820;DHT22;54618;52.018;5.576;2023-02-01T11:36:17;23.60;39.90
67820;DHT22;54618;52.018;5.576;2023-02-01T11:44:39;23.50;39.80
67820;DHT22;54618;52.018;5.576;2023-02-01T11:47:27;23.50;39.80
67820;DHT22;54618;52.018;5.576;2023-02-01T11:49:55;23.50;39.80
67820;DHT22;54618;52.018;5.576;2023-02-01T12:03:41;23.30;40.00
67820;DHT22;54618;52.018;5.576;2023-02-01T12:09:15;23.00;40.40
67820;DHT22;54618;52.018;5.576;2023-02-01T12:12:14;23.10;40.40
67820;DHT22;54618;52.018;5.576;2023-02-01T12:28:22;23.60;40.00
67820;DHT22;54618;52.018;5.576;2023-02-01T12:39:39;23.70;39.90
67820;DHT22;54618;52.018;5.576;2023-02-01T12:42:22;23.70;40.00
67820;DHT22;54618;52.018;5.576;2023-02-01T12:45:10;23.60;40.00
67820;DHT22;54618;52.018;5.576;2023-02-01T12:47:41;23.60;40.00
67820;DHT22;54618;52.018;5.576;2023-02-01T12:50:20;23.60;39.90
67820;DHT22;54618;52.018;5.576;2023-02-01T12:52:49;23.70;40.00
67820;DHT22;54618;52.018;5.576;2023-02-01T12:55:24;23.70;39.90
67820;DHT22;54618;52.018;5.576;2023-02-01T12:57:58;23.70;39.80
67820;DHT22;54618;52.018;5.576;2023-02-01T13:00:58;23.70;39.80
67820;DHT22;54618;52.018;5.576;2023-02-01T13:11:59;23.60;39.90
67820;DHT22;54618;52.018;5.576;2023-02-01T13:14:45;23.60;39.90
67820;DHT22;54618;52.018;5.576;2023-02-01T13:17:31;23.50;40.00
67820;DHT22;54618;52.018;5.576;2023-02-01T13:20:05;23.50;40.00
67820;DHT22;54618;52.018;5.576;2023-02-01T13:22:38;23.50;40.00
67820;DHT22;54618;52.018;5.576;2023-02-01T13:25:25;23.50;40.00
67820;DHT22;54618;52.018;5.576;2023-02-01T13:28:01;23.50;40.00
67820;DHT22;54618;52.018;5.576;2023-02-01T13:36:27;23.40;40.00
67820;DHT22;54618;52.018;5.576;2023-02-01T13:44:13;23.50;40.10
67820;DHT22;54618;52.018;5.576;2023-02-01T13:46:42;23.40;40.00
67820;DHT22;54618;52.018;5.576;2023-02-01T13:49:20;23.20;40.20
67820;DHT22;54618;52.018;5.576;2023-02-01T13:51:49;23.10;40.60
67820;DHT22;54618;52.018;5.576;2023-02-01T13:56:57;23.20;40.50
67820;DHT22;54618;52.018;5.576;2023-02-01T14:10:57;23.80;39.90
67820;DHT22;54618;52.018;5.576;2023-02-01T14:13:39;23.80;39.80
67820;DHT22;54618;52.018;5.576;2023-02-01T14:23:42;24.00;39.80
67820;DHT22;54618;52.018;5.576;2023-02-01T14:26:12;24.00;39.90
67820;DHT22;54618;52.018;5.576;2023-02-01T14:28:47;24.00;40.00
67820;DHT22;54618;52.018;5.576;2023-02-01T14:31:28;24.00;40.00
67820;DHT22;54618;52.018;5.576;2023-02-01T14:33:59;24.00;40.00
67820;DHT22;54618;52.018;5.576;2023-02-01T14:36:26;24.10;40.00
67820;DHT22;54618;52.018;5.576;2023-02-01T14:39:04;24.10;39.90
67820;DHT22;54618;52.018;5.576;2023-02-01T14:41:32;24.10;40.00
67820;DHT22;54618;52.018;5.576;2023-02-01T14:49:30;24.10;39.80
67820;DHT22;54618;52.018;5.576;2023-02-01T14:51:58;24.20;39.80
67820;DHT22;54618;52.018;5.576;2023-02-01T14:54:24;24.20;39.80
67820;DHT22;54618;52.018;5.576;2023-02-01T14:56:51;24.20;39.80
67820;DHT22;54618;52.018;5.576;2023-02-01T14:59:20;24.10;39.80
67820;DHT22;54618;52.018;5.576;2023-02-01T15:01:50;24.20;39.80
67820;DHT22;54618;52.018;5.576;2023-02-01T15:04:18;24.20;39.80
67820;DHT22;54618;52.018;5.576;2023-02-01T15:07:04;24.20;39.90
67820;DHT22;54618;52.018;5.576;2023-02-01T15:09:34;24.20;39.80
67820;DHT22;54618;52.018;5.576;2023-02-01T15:14:44;24.20;39.70
67820;DHT22;54618;52.018;5.576;2023-02-01T15:17:32;24.20;39.70
67820;DHT22;54618;52.018;5.576;2023-02-01T15:20:14;24.20;39.70
67820;DHT22;54618;52.018;5.576;2023-02-01T15:22:41;24.20;39.70
67820;DHT22;54618;52.018;5.576;2023-02-01T15:25:22;24.10;39.70
67820;DHT22;54618;52.018;5.576;2023-02-01T15:27:48;24.20;39.80
67820;DHT22;54618;52.018;5.576;2023-02-01T15:30:40;24.20;39.70
67820;DHT22;54618;52.018;5.576;2023-02-01T15:33:18;24.10;39.70
67820;DHT22;54618;52.018;5.576;2023-02-01T15:38:42;24.20;39.70
67820;DHT22;54618;52.018;5.576;2023-02-01T15:41:20;24.20;39.60
67820;DHT22;54618;52.018;5.576;2023-02-01T15:46:32;24.20;39.60
67820;DHT22;54618;52.018;5.576;2023-02-01T15:48:59;24.20;39.50
67820;DHT22;54618;52.018;5.576;2023-02-01T15:51:28;24.20;39.50
67820;DHT22;54618;52.018;5.576;2023-02-01T15:56:25;24.20;39.50
67820;DHT22;54618;52.018;5.576;2023-02-01T15:58:59;24.20;39.50
67820;DHT22;54618;52.018;5.576;2023-02-01T16:01:26;24.20;39.60
67820;DHT22;54618;52.018;5.576;2023-02-01T16:04:04;24.20;39.60
67820;DHT22;54618;52.018;5.576;2023-02-01T16:06:32;24.10;39.60
67820;DHT22;54618;52.018;5.576;2023-02-01T16:09:00;24.10;39.50
67820;DHT22;54618;52.018;5.576;2023-02-01T16:11:31;24.10;39.50
67820;DHT22;54618;52.018;5.576;2023-02-01T16:13:58;24.20;39.60
67820;DHT22;54618;52.018;5.576;2023-02-01T16:16:25;24.20;39.50
67820;DHT22;54618;52.018;5.576;2023-02-01T16:18:51;24.10;39.50
67820;DHT22;54618;52.018;5.576;2023-02-01T16:21:17;24.10;39.50
67820;DHT22;54618;52.018;5.576;2023-02-01T16:23:43;24.10;39.50
67820;DHT22;54618;52.018;5.576;2023-02-01T16:26:08;24.10;39.50
67820;DHT22;54618;52.018;5.576;2023-02-01T16:28:34;24.10;39.50
67820;DHT22;54618;52.018;5.576;2023-02-01T16:31:00;24.10;39.50
67820;DHT22;54618;52.018;5.576;2023-02-01T16:33:26;23.80;39.70
67820;DHT22;54618;52.018;5.576;2023-02-01T16:35:52;23.70;40.00
67820;DHT22;54618;52.018;5.576;2023-02-01T16:38:21;23.50;40.30
67820;DHT22;54618;52.018;5.576;2023-02-01T16:40:49;23.40;40.60
67820;DHT22;54618;52.018;5.576;2023-02-01T16:43:23;23.30;40.80
67820;DHT22;54618;52.018;5.576;2023-02-01T16:45:51;23.30;40.90
67820;DHT22;54618;52.018;5.576;2023-02-01T16:48:21;23.20;41.00
67820;DHT22;54618;52.018;5.576;2023-02-01T16:50:53;23.20;41.10
67820;DHT22;54618;52.018;5.576;2023-02-01T16:53:20;23.10;41.10
67820;DHT22;54618;52.018;5.576;2023-02-01T16:55:46;23.00;41.00
67820;DHT22;54618;52.018;5.576;2023-02-01T16:58:15;22.90;41.20
67820;DHT22;54618;52.018;5.576;2023-02-01T17:00:41;22.90;41.20
67820;DHT22;54618;52.018;5.576;2023-02-01T17:03:06;22.90;41.20
67820;DHT22;54618;52.018;5.576;2023-02-01T17:05:33;22.70;41.20
67820;DHT22;54618;52.018;5.576;2023-02-01T17:08:01;22.40;41.30
67820;DHT22;54618;52.018;5.576;2023-02-01T17:10:29;22.20;41.70
67820;DHT22;54618;52.018;5.576;2023-02-01T17:12:55;22.00;42.00
67820;DHT22;54618;52.018;5.576;2023-02-01T17:15:23;21.80;42.30
67820;DHT22;54618;52.018;5.576;2023-02-01T17:17:49;21.60;42.40
67820;DHT22;54618;52.018;5.576;2023-02-01T17:20:21;21.40;42.60
67820;DHT22;54618;52.018;5.576;2023-02-01T17:22:48;21.20;42.80
67820;DHT22;54618;52.018;5.576;2023-02-01T17:25:19;21.00;43.00
67820;DHT22;54618;52.018;5.576;2023-02-01T17:27:45;20.90;43.10
67820;DHT22;54618;52.018;5.576;2023-02-01T17:30:12;20.80;43.20
67820;DHT22;54618;52.018;5.576;2023-02-01T17:32:37;20.70;43.30
67820;DHT22;54618;52.018;5.576;2023-02-01T17:35:04;20.60;43.30
67820;DHT22;54618;52.018;5.576;2023-02-01T17:37:32;20.50;43.40
67820;DHT22;54618;52.018;5.576;2023-02-01T17:40:00;20.40;43.50
67820;DHT22;54618;52.018;5.576;2023-02-01T17:42:28;20.30;43.50
67820;DHT22;54618;52.018;5.576;2023-02-01T17:45:00;20.30;43.50
67820;DHT22;54618;52.018;5.576;2023-02-01T17:47:26;20.20;43.60
67820;DHT22;54618;52.018;5.576;2023-02-01T17:49:51;20.20;43.70
67820;DHT22;54618;52.018;5.576;2023-02-01T17:52:22;20.10;43.60
67820;DHT22;54618;52.018;5.576;2023-02-01T17:54:48;20.00;43.60
67820;DHT22;54618;52.018;5.576;2023-02-01T17:57:15;20.00;43.70
67820;DHT22;54618;52.018;5.576;2023-02-01T17:59:42;19.90;43.70
67820;DHT22;54618;52.018;5.576;2023-02-01T18:02:25;19.90;43.70
67820;DHT22;54618;52.018;5.576;2023-02-01T18:04:51;19.80;44.20
67820;DHT22;54618;52.018;5.576;2023-02-01T18:07:16;19.80;43.80
67820;DHT22;54618;52.018;5.576;2023-02-01T18:09:42;19.70;43.80
67820;DHT22;54618;52.018;5.576;2023-02-01T18:12:16;19.70;43.90
67820;DHT22;54618;52.018;5.576;2023-02-01T18:14:42;19.70;44.00